Accueil
METAR-TAF:

METAR-TAF

Aéroports :

Aéroport de Londres-City

Londres, Angleterre

latitude: 51-30N, longitude: 000-03E, altitude: 5 m

Observation

Le bulletin a été fait il y a 32 minutes, à 18:50 UTC
Vent 13 kt de ouest
Température 22°C
Humidité 69%
Pression 1018 hPa
Visibilité 10 km ou plus
Nuages épars à une hauteur de 2900 ft
Nuages épars à une hauteur de 3500 ft
Nuages fragmentés à une hauteur de 4200 ft

METAR: EGLC 201850Z AUTO 28013KT 9999 SCT029 SCT035 BKN042 22/16 Q1018

Heure: 20:22 (19:22 UTC)

Prévision

Le bulletin a été fait il y a 2 heures et 16 minutes, à 17:06 UTC
Prévision valable du 20 à 18 UTC au 20 à 21 UTC
Vent 16 kt de ouest
Visibilité 10 km ou plus
Nuages épars à une hauteur de 2500 ft
Evoluant progressivement
du 20 à 18 UTC au 20 à 21 UTC
Vent 10 kt de nord-ouest

TAF: EGLC 201706Z 2018/2021 26016KT 9999 SCT025 BECMG 2018/2021 32010KT

Observations et prévisions météorologiques de plus de 4000 aéroports (messages METAR et TAF).

Les stations disponibles sont représentées par des disques jaunes et rouges sur la carte.

Passer la souris dessus pour voir le nom de la station.

Cliquer dessus pour voir les observations et prévisions météorologiques.

Pour changer de carte: cliquez sur les boutons verts avec une croix noire pour zoomer, sur le bouton vert avec un tiret pour effectuer un zoom arrière, ou sur les flèches vertes pour les cartes adjacentes.


METAR-TAF: